createdAt,value
2017-08-30T00:01:27.112Z,22.40
2017-08-30T00:03:55.394Z,22.40
2017-08-30T00:06:23.675Z,22.40
2017-08-30T00:08:53.226Z,22.50
2017-08-30T00:11:21.886Z,22.50
2017-08-30T00:13:51.084Z,22.60
2017-08-30T00:16:19.699Z,22.60
2017-08-30T00:18:48.519Z,22.50
2017-08-30T00:21:17.058Z,22.30
2017-08-30T00:23:45.776Z,22.30
2017-08-30T00:26:26.574Z,22.30
2017-08-30T00:28:55.344Z,22.20
2017-08-30T00:31:24.571Z,22.30
2017-08-30T00:33:54.050Z,22.40
2017-08-30T00:36:23.345Z,22.50
2017-08-30T00:38:52.456Z,22.50
2017-08-30T00:41:21.182Z,22.50
2017-08-30T00:43:50.390Z,22.40
2017-08-30T00:46:19.167Z,22.30
2017-08-30T00:48:47.949Z,22.20
2017-08-30T00:51:16.559Z,22.20
2017-08-30T00:53:45.333Z,22.10
2017-08-30T00:56:14.156Z,22.00
2017-08-30T00:58:43.040Z,22.00
2017-08-30T01:01:12.272Z,22.10
2017-08-30T01:03:40.764Z,22.00
2017-08-30T01:06:09.401Z,21.80
2017-08-30T01:08:38.142Z,22.00
2017-08-30T01:11:06.836Z,22.00
2017-08-30T01:13:36.083Z,22.00
2017-08-30T01:16:05.280Z,21.70
2017-08-30T01:18:34.175Z,21.40
2017-08-30T01:21:03.060Z,21.30
2017-08-30T01:23:31.747Z,21.30
2017-08-30T01:26:00.565Z,21.30
2017-08-30T01:28:29.218Z,21.50
2017-08-30T01:30:58.008Z,21.70
2017-08-30T01:33:26.330Z,21.90
2017-08-30T01:35:55.349Z,21.90
2017-08-30T01:38:24.011Z,21.90
2017-08-30T01:40:52.431Z,21.90
2017-08-30T01:43:20.770Z,22.00
2017-08-30T01:45:49.493Z,22.20
2017-08-30T01:48:18.267Z,22.10
2017-08-30T01:50:47.291Z,21.90
2017-08-30T01:53:16.104Z,22.00
2017-08-30T01:55:44.496Z,22.00
2017-08-30T01:58:13.267Z,22.00
2017-08-30T02:00:41.573Z,21.80
2017-08-30T02:03:10.224Z,21.50
2017-08-30T02:05:39.401Z,21.30
2017-08-30T02:08:07.923Z,21.10
2017-08-30T02:10:36.464Z,20.80
2017-08-30T02:13:05.515Z,20.60
2017-08-30T02:15:34.331Z,20.40
2017-08-30T02:18:03.092Z,20.20
2017-08-30T02:20:31.690Z,20.20
2017-08-30T02:23:00.272Z,20.00
2017-08-30T02:25:29.737Z,19.90
2017-08-30T02:27:58.899Z,19.80
2017-08-30T02:30:28.035Z,19.80
2017-08-30T02:32:57.093Z,19.80
2017-08-30T02:35:26.774Z,19.80
2017-08-30T02:37:55.903Z,19.60
2017-08-30T02:40:24.155Z,19.70
2017-08-30T02:42:52.437Z,19.70
2017-08-30T02:45:20.693Z,19.80
2017-08-30T02:47:49.333Z,19.80
2017-08-30T02:50:18.260Z,19.70
2017-08-30T02:52:47.282Z,19.50
2017-08-30T02:55:15.987Z,19.40
2017-08-30T02:57:44.675Z,19.40
2017-08-30T03:00:13.034Z,19.40
2017-08-30T03:02:42.134Z,19.40
2017-08-30T03:05:10.409Z,19.20
2017-08-30T03:07:42.627Z,19.10
2017-08-30T03:10:11.520Z,19.10
2017-08-30T03:12:40.696Z,19.10
2017-08-30T03:15:09.055Z,19.10
2017-08-30T03:17:37.865Z,19.00
2017-08-30T03:20:06.650Z,18.90
2017-08-30T03:22:35.696Z,18.80
2017-08-30T03:25:04.578Z,18.80
2017-08-30T03:27:32.942Z,18.70
2017-08-30T03:30:01.639Z,18.70
2017-08-30T03:32:30.382Z,18.70
2017-08-30T03:34:59.673Z,18.60
2017-08-30T03:37:28.465Z,18.60
2017-08-30T03:39:57.283Z,18.60
2017-08-30T03:42:26.190Z,18.60
2017-08-30T03:44:55.573Z,18.60
2017-08-30T03:47:24.328Z,18.70
2017-08-30T03:49:53.259Z,18.70
2017-08-30T03:52:21.869Z,18.80
2017-08-30T03:54:50.632Z,18.70
2017-08-30T03:57:19.387Z,18.50
2017-08-30T03:59:48.101Z,18.50
2017-08-30T04:02:17.194Z,18.50
2017-08-30T04:04:45.796Z,18.50
2017-08-30T04:07:14.706Z,18.50
2017-08-30T04:09:43.771Z,18.50
2017-08-30T04:12:12.375Z,18.50
2017-08-30T04:14:41.058Z,18.50
2017-08-30T04:17:09.875Z,18.30
2017-08-30T04:19:38.859Z,18.30
2017-08-30T04:22:07.419Z,18.30
2017-08-30T04:24:36.841Z,18.30
2017-08-30T04:27:05.909Z,18.30
2017-08-30T04:29:34.900Z,18.20
2017-08-30T04:32:04.218Z,18.30
2017-08-30T04:34:32.993Z,18.30
2017-08-30T04:37:01.824Z,18.30
2017-08-30T04:39:30.481Z,18.40
2017-08-30T04:41:59.176Z,18.30
2017-08-30T04:44:28.154Z,18.40
2017-08-30T04:46:57.058Z,18.30
2017-08-30T04:49:25.834Z,18.30
2017-08-30T04:51:55.149Z,18.50
2017-08-30T04:54:23.743Z,18.50
2017-08-30T04:56:52.635Z,18.40
2017-08-30T04:59:21.923Z,18.40
2017-08-30T05:01:50.962Z,18.50
2017-08-30T05:04:19.675Z,18.40
2017-08-30T05:06:48.133Z,18.40
2017-08-30T05:09:16.970Z,18.40
2017-08-30T05:11:45.598Z,18.40
2017-08-30T05:14:13.848Z,18.10
2017-08-30T05:16:42.804Z,18.00
2017-08-30T05:19:12.978Z,17.80
2017-08-30T05:21:41.874Z,17.70
2017-08-30T05:24:10.699Z,17.50
2017-08-30T05:26:39.440Z,17.60
2017-08-30T05:29:08.262Z,17.60
2017-08-30T05:31:37.098Z,17.60
2017-08-30T05:34:06.871Z,17.70
2017-08-30T05:36:35.540Z,17.70
2017-08-30T05:39:05.765Z,17.80
2017-08-30T05:41:34.472Z,17.90
2017-08-30T05:44:03.116Z,18.00
2017-08-30T05:46:32.044Z,18.20
2017-08-30T05:49:01.024Z,18.30
2017-08-30T05:51:29.416Z,18.50
2017-08-30T05:53:57.870Z,18.50
2017-08-30T05:56:26.125Z,18.60
2017-08-30T05:58:54.435Z,18.70
2017-08-30T06:01:23.127Z,18.70
2017-08-30T06:03:51.977Z,18.80
2017-08-30T06:06:20.856Z,19.40
2017-08-30T06:08:49.837Z,20.10
2017-08-30T06:11:18.432Z,20.90
2017-08-30T06:13:47.109Z,21.50
2017-08-30T06:16:15.993Z,22.00
2017-08-30T06:18:45.237Z,22.50
2017-08-30T06:21:14.261Z,22.70
2017-08-30T06:23:42.885Z,22.90
2017-08-30T06:26:11.670Z,23.00
2017-08-30T06:28:40.458Z,23.20
2017-08-30T06:31:09.105Z,23.40
2017-08-30T06:33:37.777Z,23.70
2017-08-30T06:36:06.616Z,23.90
2017-08-30T06:38:35.023Z,24.30
2017-08-30T06:41:03.722Z,24.60
2017-08-30T06:43:32.364Z,25.00
2017-08-30T06:46:02.059Z,25.20
2017-08-30T06:48:31.571Z,25.50
2017-08-30T06:51:00.472Z,25.60
2017-08-30T06:53:28.961Z,25.70
2017-08-30T06:55:57.205Z,25.90
2017-08-30T06:58:25.712Z,25.80
2017-08-30T07:00:54.368Z,25.80
2017-08-30T07:03:23.287Z,25.80
2017-08-30T07:05:52.187Z,26.00
2017-08-30T07:08:20.629Z,26.20
2017-08-30T07:10:49.366Z,26.40
2017-08-30T07:13:18.326Z,26.50
2017-08-30T07:15:47.509Z,26.70
2017-08-30T07:18:16.310Z,27.00
2017-08-30T07:20:45.108Z,27.20
2017-08-30T07:23:13.866Z,27.50
2017-08-30T07:25:42.818Z,27.70
2017-08-30T07:28:11.416Z,27.90
2017-08-30T07:30:39.887Z,28.00
2017-08-30T07:33:08.447Z,26.10
2017-08-30T07:35:37.185Z,23.80
2017-08-30T07:38:05.840Z,22.80
2017-08-30T07:40:35.546Z,23.20
2017-08-30T07:43:05.206Z,23.10
2017-08-30T07:45:35.037Z,23.30
2017-08-30T07:48:06.468Z,23.90
2017-08-30T07:50:35.325Z,24.10
2017-08-30T07:53:04.118Z,23.40
2017-08-30T07:55:33.798Z,23.90
2017-08-30T07:58:02.581Z,23.90
2017-08-30T08:00:31.261Z,24.50
2017-08-30T08:03:00.853Z,24.80
2017-08-30T08:05:30.808Z,24.00
2017-08-30T08:07:59.605Z,24.70
2017-08-30T08:10:28.403Z,24.70
2017-08-30T08:12:56.878Z,24.30
2017-08-30T08:15:25.722Z,24.20
2017-08-30T08:17:54.653Z,24.70
2017-08-30T08:20:23.870Z,25.40
2017-08-30T08:22:52.532Z,26.00
2017-08-30T08:25:22.423Z,26.60
2017-08-30T08:27:51.565Z,27.50
2017-08-30T08:30:20.652Z,28.10
2017-08-30T08:32:49.612Z,28.70
2017-08-30T08:35:19.232Z,29.20
2017-08-30T08:37:48.049Z,29.90
2017-08-30T08:40:20.889Z,30.50
2017-08-30T08:42:49.384Z,31.10
2017-08-30T08:45:18.310Z,31.30
2017-08-30T08:47:47.011Z,31.10
2017-08-30T08:50:16.005Z,31.00
2017-08-30T08:52:44.860Z,31.20
2017-08-30T08:55:14.597Z,31.20
2017-08-30T08:57:43.366Z,31.50
2017-08-30T09:00:12.729Z,31.70
2017-08-30T09:02:41.562Z,31.80
2017-08-30T09:05:10.323Z,31.90
2017-08-30T09:07:39.016Z,32.20
2017-08-30T09:10:08.424Z,32.60
2017-08-30T09:12:37.113Z,32.80
2017-08-30T09:15:09.845Z,33.00
2017-08-30T09:17:38.574Z,33.20
2017-08-30T09:20:08.250Z,33.70
2017-08-30T09:22:37.193Z,34.00
2017-08-30T09:25:06.471Z,34.10
2017-08-30T09:27:35.222Z,34.10
2017-08-30T09:30:03.879Z,33.80
2017-08-30T09:32:32.527Z,33.50
2017-08-30T09:35:01.229Z,33.30
2017-08-30T09:37:30.122Z,33.00
2017-08-30T09:39:59.283Z,33.30
2017-08-30T09:42:27.947Z,33.70
2017-08-30T09:44:56.830Z,34.00
2017-08-30T09:47:25.753Z,34.00
2017-08-30T09:49:54.748Z,34.00
2017-08-30T09:52:23.666Z,33.80
2017-08-30T09:54:52.502Z,34.00
2017-08-30T09:57:21.301Z,34.50
2017-08-30T09:59:49.905Z,34.40
2017-08-30T10:02:18.679Z,34.30
2017-08-30T10:04:47.605Z,34.50
2017-08-30T10:07:16.433Z,34.40
2017-08-30T10:09:45.539Z,34.50
2017-08-30T10:12:14.413Z,34.70
2017-08-30T10:14:43.335Z,34.70
2017-08-30T10:17:12.161Z,35.00
2017-08-30T10:19:40.710Z,35.00
2017-08-30T10:22:09.593Z,35.10
2017-08-30T10:24:38.688Z,35.50
2017-08-30T10:27:07.518Z,35.50
2017-08-30T10:29:35.786Z,35.80
2017-08-30T10:32:04.764Z,35.70
2017-08-30T10:34:33.589Z,35.90
2017-08-30T10:37:02.165Z,35.90
2017-08-30T10:39:31.609Z,35.30
2017-08-30T10:42:00.845Z,35.30
2017-08-30T10:44:29.794Z,35.70
2017-08-30T10:46:58.646Z,36.00
2017-08-30T10:49:27.481Z,36.00
2017-08-30T10:51:56.355Z,36.30
2017-08-30T10:54:26.033Z,35.90
2017-08-30T10:56:54.720Z,35.50
2017-08-30T10:59:23.490Z,35.60
2017-08-30T11:01:52.452Z,35.60
2017-08-30T11:04:21.493Z,35.70
2017-08-30T11:06:50.194Z,35.90
2017-08-30T11:09:18.661Z,36.00
2017-08-30T11:11:47.441Z,36.20
2017-08-30T11:14:16.595Z,36.10
2017-08-30T11:16:45.281Z,36.30
2017-08-30T11:19:13.841Z,36.30
2017-08-30T11:21:42.753Z,36.60
2017-08-30T11:24:11.796Z,35.30
2017-08-30T11:26:40.603Z,32.70
2017-08-30T11:29:09.368Z,31.90
2017-08-30T11:31:38.521Z,32.10
2017-08-30T11:34:07.329Z,32.90
2017-08-30T11:36:36.260Z,33.80
2017-08-30T11:39:05.526Z,34.50
2017-08-30T11:41:34.406Z,34.60
2017-08-30T11:44:03.134Z,34.80
2017-08-30T11:46:31.977Z,35.10
2017-08-30T11:49:00.438Z,35.30
2017-08-30T11:51:29.426Z,35.60
2017-08-30T11:53:58.177Z,35.70
2017-08-30T11:56:27.038Z,35.80
2017-08-30T11:58:56.079Z,36.00
2017-08-30T12:01:24.947Z,35.80
2017-08-30T12:03:53.600Z,35.90
2017-08-30T12:06:22.589Z,36.10
2017-08-30T12:08:51.406Z,36.20
2017-08-30T12:11:20.006Z,36.10
2017-08-30T12:13:48.853Z,36.30
2017-08-30T12:16:17.404Z,36.40
2017-08-30T12:18:45.760Z,36.10
2017-08-30T12:21:14.567Z,35.80
2017-08-30T12:23:43.355Z,35.40
2017-08-30T12:26:12.162Z,35.70
2017-08-30T12:28:41.131Z,35.90
2017-08-30T12:31:09.901Z,36.00
2017-08-30T12:33:38.573Z,35.50
2017-08-30T12:36:07.897Z,35.60
2017-08-30T12:38:42.060Z,35.40
2017-08-30T12:41:10.609Z,35.30
2017-08-30T12:43:39.392Z,34.90
2017-08-30T12:46:08.179Z,34.80
2017-08-30T12:48:37.510Z,34.60
2017-08-30T12:51:06.652Z,34.50
2017-08-30T12:53:35.738Z,34.10
2017-08-30T12:56:04.187Z,33.20
2017-08-30T12:58:32.779Z,33.50
2017-08-30T13:01:01.801Z,33.40
2017-08-30T13:03:30.681Z,33.10
2017-08-30T13:06:00.157Z,33.20
2017-08-30T13:08:29.675Z,32.70
2017-08-30T13:10:58.655Z,32.80
2017-08-30T13:13:27.578Z,33.20
2017-08-30T13:15:56.262Z,33.40
2017-08-30T13:18:24.970Z,33.40
2017-08-30T13:20:53.801Z,33.40
2017-08-30T13:23:23.097Z,33.60
2017-08-30T13:25:51.874Z,33.90
2017-08-30T13:28:20.538Z,33.80
2017-08-30T13:30:49.483Z,33.60
2017-08-30T13:33:17.997Z,33.40
2017-08-30T13:35:46.635Z,33.30
2017-08-30T13:38:15.555Z,33.20
2017-08-30T13:40:44.753Z,32.80
2017-08-30T13:43:13.490Z,32.60
2017-08-30T13:45:42.455Z,32.50
2017-08-30T13:48:11.536Z,32.40
2017-08-30T13:50:40.474Z,32.00
2017-08-30T13:53:09.178Z,31.90
2017-08-30T13:55:37.808Z,32.00
2017-08-30T13:58:06.100Z,31.90
2017-08-30T14:00:34.824Z,31.90
2017-08-30T14:03:04.587Z,31.80
2017-08-30T14:05:32.886Z,31.80
2017-08-30T14:08:01.927Z,32.00
2017-08-30T14:10:30.878Z,32.20
2017-08-30T14:12:59.734Z,32.20
2017-08-30T14:15:28.867Z,32.20
2017-08-30T14:17:58.624Z,31.90
2017-08-30T14:20:27.470Z,31.90
2017-08-30T14:22:56.440Z,31.90
2017-08-30T14:25:25.131Z,31.80
2017-08-30T14:27:56.434Z,31.60
2017-08-30T14:30:25.867Z,31.60
2017-08-30T14:32:54.914Z,31.50
2017-08-30T14:35:24.590Z,31.40
2017-08-30T14:37:54.776Z,31.40
2017-08-30T14:40:24.740Z,31.50
2017-08-30T14:42:53.824Z,31.50
2017-08-30T14:45:22.448Z,31.50
2017-08-30T14:47:51.631Z,31.60
2017-08-30T14:50:20.302Z,31.60
2017-08-30T14:52:49.179Z,31.70
2017-08-30T14:55:18.045Z,31.70
2017-08-30T14:57:47.025Z,31.70
2017-08-30T15:00:16.074Z,31.70
2017-08-30T15:02:44.522Z,31.80
2017-08-30T15:05:13.364Z,31.70
2017-08-30T15:07:42.159Z,31.60
2017-08-30T15:10:11.248Z,31.60
2017-08-30T15:12:40.047Z,31.70
2017-08-30T15:15:09.114Z,31.50
2017-08-30T15:17:38.191Z,31.30
2017-08-30T15:20:07.231Z,31.20
2017-08-30T15:22:36.318Z,31.20
2017-08-30T15:25:04.891Z,31.40
2017-08-30T15:27:33.580Z,31.50
2017-08-30T15:30:03.493Z,31.50
2017-08-30T15:32:33.166Z,31.40
2017-08-30T15:35:02.942Z,31.10
2017-08-30T15:37:32.114Z,30.90
2017-08-30T15:40:00.711Z,30.90
2017-08-30T15:42:30.851Z,30.90
2017-08-30T15:44:59.679Z,30.70
2017-08-30T15:47:28.703Z,30.50
2017-08-30T15:49:57.572Z,30.50
2017-08-30T15:52:25.889Z,30.50
2017-08-30T15:54:54.283Z,30.50
2017-08-30T15:57:22.988Z,30.40
2017-08-30T15:59:51.828Z,30.30
2017-08-30T16:02:20.881Z,30.10
2017-08-30T16:04:49.791Z,29.80
2017-08-30T16:07:18.436Z,29.80
2017-08-30T16:09:47.797Z,29.70
2017-08-30T16:12:16.456Z,29.60
2017-08-30T16:14:44.865Z,29.60
2017-08-30T16:17:13.175Z,29.50
2017-08-30T16:19:41.421Z,29.40
2017-08-30T16:22:13.936Z,29.30
2017-08-30T16:24:42.393Z,29.20
2017-08-30T16:27:10.673Z,29.10
2017-08-30T16:29:39.101Z,29.00
2017-08-30T16:32:07.364Z,29.00
2017-08-30T16:34:36.550Z,28.90
2017-08-30T16:37:05.883Z,28.90
2017-08-30T16:39:34.172Z,28.80
2017-08-30T16:42:02.424Z,28.80
2017-08-30T16:44:30.697Z,28.70
2017-08-30T16:46:59.164Z,28.70
2017-08-30T16:49:27.452Z,28.60
2017-08-30T16:51:55.769Z,28.60
2017-08-30T16:54:24.040Z,28.60
2017-08-30T16:56:52.524Z,28.50
2017-08-30T16:59:20.809Z,28.50
2017-08-30T17:01:49.054Z,28.50
2017-08-30T17:04:17.304Z,28.50
2017-08-30T17:06:45.564Z,28.40
2017-08-30T17:09:13.809Z,28.40
2017-08-30T17:11:42.293Z,28.40
2017-08-30T17:14:10.718Z,28.40
2017-08-30T17:16:38.956Z,28.40
2017-08-30T17:19:07.192Z,28.20
2017-08-30T17:21:35.528Z,28.00
2017-08-30T17:24:03.874Z,28.00
2017-08-30T17:26:32.117Z,27.90
2017-08-30T17:29:00.624Z,27.80
2017-08-30T17:31:28.944Z,27.70
2017-08-30T17:33:57.446Z,27.80
2017-08-30T17:36:26.009Z,27.80
2017-08-30T17:38:54.382Z,27.70
2017-08-30T17:41:22.634Z,27.70
2017-08-30T17:43:50.957Z,27.60
2017-08-30T17:46:19.382Z,27.60
2017-08-30T17:48:47.641Z,27.60
2017-08-30T17:51:16.196Z,27.50
2017-08-30T17:53:44.639Z,27.40
2017-08-30T17:56:12.980Z,27.40
2017-08-30T17:58:41.418Z,27.40
2017-08-30T18:01:09.726Z,27.20
2017-08-30T18:03:38.015Z,27.20
2017-08-30T18:06:06.337Z,27.20
2017-08-30T18:08:34.808Z,27.30
2017-08-30T18:11:03.093Z,27.30
2017-08-30T18:13:31.551Z,27.20
2017-08-30T18:15:59.870Z,27.20
2017-08-30T18:18:28.221Z,27.10
2017-08-30T18:20:56.604Z,27.20
2017-08-30T18:23:24.909Z,27.10
2017-08-30T18:25:53.255Z,27.10
2017-08-30T18:28:21.895Z,27.00
2017-08-30T18:30:50.182Z,27.00
2017-08-30T18:33:18.661Z,26.90
2017-08-30T18:35:47.125Z,26.80
2017-08-30T18:38:15.385Z,26.80
2017-08-30T18:40:43.653Z,26.70
2017-08-30T18:43:11.914Z,26.60
2017-08-30T18:45:40.409Z,26.50
2017-08-30T18:48:08.643Z,26.20
2017-08-30T18:50:37.072Z,26.10
2017-08-30T18:53:05.309Z,26.00
2017-08-30T18:55:33.631Z,25.80
2017-08-30T18:58:02.068Z,25.70
2017-08-30T19:00:30.353Z,25.60
2017-08-30T19:02:58.682Z,25.60
2017-08-30T19:05:27.059Z,25.50
2017-08-30T19:07:55.301Z,25.50
2017-08-30T19:10:23.537Z,25.40
2017-08-30T19:12:51.808Z,25.40
2017-08-30T19:15:20.057Z,25.30
2017-08-30T19:17:48.302Z,25.40
2017-08-30T19:20:16.554Z,25.30
2017-08-30T19:22:44.805Z,25.20
2017-08-30T19:25:13.147Z,25.20
2017-08-30T19:27:41.389Z,25.20
2017-08-30T19:30:09.639Z,25.20
2017-08-30T19:32:38.133Z,25.20
2017-08-30T19:35:07.157Z,25.20
2017-08-30T19:37:35.397Z,25.10
2017-08-30T19:40:03.688Z,25.10
2017-08-30T19:42:31.948Z,25.10
2017-08-30T19:45:00.208Z,25.00
2017-08-30T19:47:28.457Z,25.10
2017-08-30T19:49:56.738Z,25.00
2017-08-30T19:52:25.170Z,25.00
2017-08-30T19:54:53.417Z,24.90
2017-08-30T19:57:21.676Z,24.90
2017-08-30T19:59:50.051Z,24.90
2017-08-30T20:02:18.314Z,24.80
2017-08-30T20:04:46.576Z,24.80
2017-08-30T20:07:15.062Z,24.80
2017-08-30T20:09:43.306Z,24.70
2017-08-30T20:12:11.593Z,24.70
2017-08-30T20:14:40.028Z,24.70
2017-08-30T20:17:08.289Z,24.70
2017-08-30T20:19:36.547Z,24.60
2017-08-30T20:22:04.784Z,24.60
2017-08-30T20:24:33.111Z,24.60
2017-08-30T20:27:01.538Z,24.50
2017-08-30T20:29:29.782Z,24.50
2017-08-30T20:31:58.037Z,24.40
2017-08-30T20:34:26.321Z,24.40
2017-08-30T20:36:54.780Z,24.40
2017-08-30T20:39:23.094Z,24.50
2017-08-30T20:41:51.392Z,24.50
2017-08-30T20:44:19.633Z,24.50
2017-08-30T20:46:47.878Z,24.50
2017-08-30T20:49:16.143Z,24.50
2017-08-30T20:51:44.400Z,24.40
2017-08-30T20:54:12.644Z,24.40
2017-08-30T20:56:40.956Z,24.40
2017-08-30T20:59:09.315Z,24.40
2017-08-30T21:01:37.565Z,24.30
2017-08-30T21:04:05.996Z,24.20
2017-08-30T21:06:34.263Z,24.20
2017-08-30T21:09:02.503Z,24.20
2017-08-30T21:11:30.773Z,24.10
2017-08-30T21:13:59.011Z,24.10
2017-08-30T21:16:27.272Z,24.10
2017-08-30T21:18:55.701Z,24.00
2017-08-30T21:21:23.940Z,24.00
2017-08-30T21:23:52.200Z,23.90
2017-08-30T21:26:20.825Z,23.90
2017-08-30T21:28:49.068Z,23.90
2017-08-30T21:31:17.340Z,24.00
2017-08-30T21:33:45.605Z,24.10
2017-08-30T21:36:13.843Z,24.00
2017-08-30T21:38:42.126Z,23.90
2017-08-30T21:41:10.400Z,23.80
2017-08-30T21:43:38.642Z,23.80
2017-08-30T21:46:06.939Z,23.70
2017-08-30T21:48:35.176Z,23.80
2017-08-30T21:51:03.425Z,23.80
2017-08-30T21:53:31.714Z,23.80
2017-08-30T21:55:59.968Z,23.80
2017-08-30T21:58:28.225Z,23.80
2017-08-30T22:00:56.506Z,23.80
2017-08-30T22:03:24.781Z,23.70
2017-08-30T22:05:53.760Z,23.70
2017-08-30T22:08:22.076Z,23.60
2017-08-30T22:10:50.324Z,23.60
2017-08-30T22:13:19.290Z,23.50
2017-08-30T22:15:48.176Z,23.50
2017-08-30T22:18:17.223Z,23.50
2017-08-30T22:20:45.641Z,23.60
2017-08-30T22:23:13.904Z,23.50
2017-08-30T22:25:42.577Z,23.60
2017-08-30T22:28:11.371Z,23.60
2017-08-30T22:30:40.712Z,23.60
2017-08-30T22:33:10.191Z,23.50
2017-08-30T22:35:39.101Z,23.40
2017-08-30T22:38:07.574Z,23.30
2017-08-30T22:40:35.801Z,23.20
2017-08-30T22:43:04.058Z,23.20
2017-08-30T22:45:32.821Z,23.10
2017-08-30T22:48:02.396Z,23.30
2017-08-30T22:50:31.218Z,23.50
2017-08-30T22:53:00.007Z,23.60
2017-08-30T22:55:28.851Z,23.80
2017-08-30T22:57:57.556Z,23.80
2017-08-30T23:00:25.993Z,23.80
2017-08-30T23:02:54.233Z,23.80
2017-08-30T23:05:22.494Z,23.90
2017-08-30T23:07:50.776Z,24.00
2017-08-30T23:10:19.894Z,24.10
2017-08-30T23:12:48.623Z,24.10
2017-08-30T23:15:17.294Z,24.10
2017-08-30T23:17:45.653Z,24.20
2017-08-30T23:20:13.907Z,24.20
2017-08-30T23:22:42.164Z,24.10
2017-08-30T23:25:10.413Z,24.20
2017-08-30T23:27:39.596Z,24.20
2017-08-30T23:30:08.079Z,24.30
2017-08-30T23:32:36.382Z,24.10
2017-08-30T23:35:04.901Z,24.20
2017-08-30T23:37:33.225Z,24.30
2017-08-30T23:40:01.852Z,24.20
2017-08-30T23:42:30.716Z,24.30
2017-08-30T23:45:00.383Z,24.20
2017-08-30T23:47:29.242Z,24.10
2017-08-30T23:49:57.757Z,24.10
2017-08-30T23:52:26.373Z,24.20
2017-08-30T23:54:55.470Z,24.30
2017-08-30T23:57:23.953Z,24.40
2017-08-30T23:59:52.754Z,24.40
